Station: Cape Sorell  

  Atmospheric Gas Attenuation - ITU Rec 676-11   ----------------- dB/100km -----------------
Date Time Temp RH % AH g/m3 Dew Point Wind Direction Speed kph Gust kph Barometer mB Rainfall Since 9am 24GHz 47GHz 76GHz 122GHz 134GHz 241GHz
08/05 12:30 13.2 79 9.07 9.6 39 44 1018.4 0 20.6 27.0 42.3 110.9 105.9 364.7
08/05 12:20 13.4 81 9.42 10.2 39 43 1018.4 0 21.4 27.6 43.6 114.5 110.4 380.5
08/05 12:10 12.6 83 9.18 9.9 44 50 1018.4 0 20.9 27.4 43.0 113.0 108.3 372.8
08/05 12:00 12.5 86 9.46 10.2 43 54 1018.5 0 21.5 27.9 44.3 116.3 112.3 386.9
08/05 11:50 13.3 80 9.24 9.9 43 52 1018.4 0 21.0 27.3 42.9 112.7 108.1 372.3
08/05 11:40 13.1 77 8.79 9.1 43 46 1018.1 0 20.0 26.6 41.1 108.0 102.2 351.8
08/05 11:30 13.4 79 9.18 9.8 43 48 1018.1 0 20.8 27.2 42.6 111.8 107.1 368.9
08/05 11:20 13.4 77 8.95 9.4 43 48 1017.9 0 20.4 26.8 41.6 109.3 104.0 357.9
08/05 11:10 13.4 75 8.72 9 50 54 1017.7 0 19.9 26.4 40.7 106.8 100.9 347.1
08/05 11:00 12.9 78 8.79 9.2 44 54 1017.5 0 20.0 26.6 41.2 108.2 102.5 352.5
08/05 10:50 13 78 8.85 9.2 41 44 1017.5 0 20.2 26.7 41.4 108.7 103.1 354.9
08/05 10:40 13.1 77 8.79 9.1 39 44 1017.4 0 20.0 26.6 41.1 107.9 102.2 351.6
08/05 10:30 13.1 79 9.02 9.5 44 52 1017.4 0 20.5 26.9 42.1 110.4 105.3 362.5
08/05 10:20 12.7 79 8.79 9.1 43 48 1017.2 0 20.0 26.7 41.3 108.4 102.7 353.4
08/05 10:10 13.1 79 9.02 9.5 44 50 1017.1 0 20.5 26.9 42.0 110.4 105.3 362.4
08/05 10:00 13.1 78 8.9 9.4 43 50 1017 0 20.3 26.7 41.5 109.1 103.6 356.7
08/05 09:50 12.9 79 8.9 9.3 43 46 1016.9 0 20.3 26.8 41.6 109.3 103.9 357.6
08/05 09:40 12.6 80 8.85 9.2 44 52 1016.9 0 20.2 26.8 41.6 109.2 103.6 356.6
08/05 09:30 12.6 81 8.96 9.4 46 61 1017 0 20.4 27.0 42.1 110.4 105.1 361.8
08/05 09:20 12.8 78 8.74 9 46 50 1016.8 0 19.9 26.6 41.0 107.7 101.9 350.4
08/05 09:10 12.7 77 8.57 8.9 46 52 1016.7 0 19.6 26.3 40.4 106.0 99.7 342.8
08/05 09:00 12.6 80 8.85 9.2 43 48 1016.6 0 20.2 26.8 41.6 109.2 103.6 356.5
08/05 08:50 12.6 80 8.85 9.2 44 48 1016.5 5.2 20.2 26.8 41.6 109.1 103.6 356.5
08/05 08:40 12.3 80 8.69 8.9 46 52 1016.3 5.2 19.9 26.6 41.1 107.8 101.8 350.2
08/05 08:30 12.1 81 8.69 8.9 46 54 1016.3 5.2 19.9 26.7 41.2 108.1 102.1 351.1
08/05 08:20 12.4 83 9.07 9.6 48 56 1016.2 5.2 20.7 27.2 42.6 111.8 106.8 367.8
08/05 08:10 12.2 81 8.74 9 56 57 1015.9 5.2 20.0 26.7 41.3 108.4 102.6 352.9
08/05 08:00 12.4 83 9.07 9.6 41 50 1015.9 5.2 20.7 27.2 42.6 111.8 106.8 367.7
08/05 07:50 12.6 81 8.96 9.4 43 46 1015.9 5.2 20.4 26.9 42.0 110.3 105.0 361.5
08/05 07:40 11.9 78 8.26 8.3 50 54 1015.7 5.2 19.0 26.0 39.5 103.5 96.5 331.4
08/05 07:30 12.3 80 8.69 9 46 54 1015.7 5.2 19.9 26.6 41.0 107.7 101.7 350.0
08/05 07:20 11.9 78 8.26 8.2 44 48 1015.5 5.2 19.0 26.0 39.5 103.5 96.4 331.4
08/05 07:10 12 80 8.53 8.6 39 44 1015.6 5.2 19.5 26.4 40.5 106.4 100.0 343.7
08/05 07:00 11.9 79 8.37 8.4 50 61 1015.2 5.2 19.2 26.1 39.9 104.7 97.9 336.5
08/05 06:50 11.9 81 8.58 8.7 46 52 1015.2 5.2 19.6 26.5 40.8 107.0 100.7 346.4
08/05 06:40 11.9 82 8.69 8.9 43 46 1015.2 5.2 19.9 26.7 41.2 108.2 102.2 351.6
08/05 06:30 11.9 81 8.58 8.7 41 50 1015.4 5.2 19.6 26.5 40.8 107.0 100.8 346.5
08/05 06:20 11.7 82 8.58 8.7 43 48 1015.2 5.2 19.6 26.6 40.9 107.3 101.0 347.3
08/05 06:10 11.6 85 8.84 9.1 44 48 1015.1 5.2 20.2 27.0 42.0 110.3 104.7 360.2
08/05 06:00 12 85 9.06 9.6 48 61 1014.9 5.2 20.7 27.3 42.7 112.2 107.1 368.8
08/05 05:50 12.1 77 8.26 8.3 39 41 1014.9 5.2 18.9 25.9 39.3 103.2 96.1 330.4
08/05 05:40 11.8 77 8.11 7.9 46 50 1014.6 5.2 18.6 25.7 38.9 101.9 94.5 324.5
08/05 05:30 11.6 76 7.9 7.5 52 61 1014.3 5.2 18.2 25.4 38.1 99.9 91.9 315.5
08/05 05:20 11.9 81 8.58 8.7 56 61 1014.2 5.2 19.6 26.5 40.7 106.9 100.7 346.1
08/05 05:10 12 81 8.63 8.8 48 54 1014 5.2 19.7 26.5 40.9 107.3 101.2 348.0
08/05 05:00 12.4 82 8.96 9.4 48 61 1013.9 5.2 20.4 26.9 42.0 110.4 105.1 361.9
08/05 04:50 11.5 79 8.16 8.1 44 48 1013.8 5.2 18.8 25.9 39.2 102.8 95.5 327.9
08/05 04:40 12.4 85 9.29 9.9 43 46 1013.6 5.2 21.1 27.5 43.4 114.0 109.6 377.6
08/05 04:30 12.4 79 8.63 8.9 48 57 1013.4 5.2 19.7 26.4 40.6 106.7 100.6 346.1
08/05 04:20 12 77 8.21 8.2 46 50 1013.3 5.2 18.8 25.8 39.1 102.6 95.5 328.0
08/05 04:10 12.2 80 8.63 8.8 43 48 1013.3 5.2 19.7 26.4 40.7 106.9 100.9 346.9
08/05 04:00 11.7 80 8.37 8.4 46 56 1013.2 5.2 19.2 26.1 39.9 104.8 98.0 336.8
08/05 03:50 11.7 84 8.79 9.1 43 48 1013.3 5.2 20.1 26.8 41.7 109.4 103.7 356.8
08/05 03:40 11.2 87 8.82 9.1 44 48 1013.2 5.2 20.2 27.0 42.0 110.4 104.8 360.5
08/05 03:30 11.4 89 9.14 9.7 46 61 1013.1 5.2 20.9 27.5 43.3 113.7 108.9 375.0
08/05 03:20 11.7 89 9.31 9.9 57 63 1012.7 5.2 21.2 27.7 43.8 115.2 110.8 381.7
08/05 03:10 12.1 83 8.9 9.4 61 69 1012.3 5.2 20.3 26.9 41.9 109.9 104.6 359.9
08/05 03:00 12 83 8.85 9.2 50 57 1012.4 5.2 20.2 26.8 41.7 109.5 104.0 358.0
08/05 02:50 11.9 85 9 9.4 56 63 1012.3 5.2 20.5 27.1 42.4 111.3 106.2 365.6
08/05 02:40 11.3 87 8.88 9.2 54 57 1012.2 5.2 20.3 27.1 42.2 110.8 105.4 362.6
08/05 02:30 11.4 89 9.14 9.7 61 82 1012.1 5.2 20.9 27.5 43.2 113.6 108.9 374.7
08/05 02:20 11.6 87 9.04 9.6 54 59 1012.1 5.2 20.6 27.2 42.7 112.2 107.2 368.9
08/05 02:10 12 87 9.27 9.9 44 50 1012.2 5.2 21.1 27.5 43.5 114.2 109.8 378.2
08/05 02:00 12.1 85 9.12 9.7 50 69 1011.9 5.2 20.8 27.2 42.8 112.3 107.6 370.4
08/05 01:50 12.2 82 8.85 9.2 54 61 1011.7 5.2 20.2 26.7 41.6 109.2 103.7 356.9
08/05 01:40 12.2 75 8.09 7.9 59 70 1011.5 5.2 18.6 25.5 38.5 100.9 93.5 321.1
08/05 01:30 12.4 77 8.41 8.5 59 70 1011.2 5.2 19.3 25.9 39.6 104.0 97.5 335.1
08/05 01:20 12.6 80 8.85 9.2 59 80 1011.4 5.2 20.2 26.6 41.3 108.6 103.2 355.0
08/05 01:10 11.9 78 8.26 8.2 67 74 1011.1 5.2 19.0 25.8 39.3 103.1 96.1 330.2
08/05 01:00 11.6 82 8.52 8.6 57 67 1011.1 5.2 19.5 26.3 40.5 106.3 100.0 343.7
08/05 00:50 11.6 86 8.94 9.3 57 63 1010.7 5.2 20.4 27.0 42.2 110.9 105.7 363.7
08/05 00:40 12.3 83 9.01 9.6 56 57 1010.7 5.2 20.5 26.9 42.1 110.7 105.7 363.8
08/05 00:30 11.9 82 8.69 8.9 59 76 1010.3 5.2 19.9 26.5 41.0 107.7 101.8 350.2
08/05 00:20 12.1 82 8.79 9.1 50 59 1010.6 5.2 20.1 26.6 41.3 108.5 102.9 354.2
08/05 00:10 11.4 83 8.52 8.6 63 70 1010.2 5.2 19.5 26.4 40.6 106.5 100.2 344.4
08/05 00:00 11.9 88 9.32 10 54 65 1010.4 5.2 21.2 27.6 43.6 114.7 110.5 380.5
07/05 23:50 12 90 9.59 10.5 56 59 1010.3 5.2 21.8 28.0 44.7 117.6 114.1 393.2
07/05 23:40 12.3 92 9.99 11 54 63 1010.4 5.2 22.7 28.6 46.3 121.7 119.3 411.3
07/05 23:30 12.2 93 10.04 11.1 52 63 1010.4 5.2 22.8 28.7 46.5 122.5 120.1 414.4
07/05 23:20 12.1 92 9.87 10.8 56 63 1010.3 5 22.4 28.4 45.9 120.7 117.9 406.4
07/05 23:10 12.3 93 10.1 11.2 56 65 1010.3 5 22.9 28.8 46.7 123.0 120.8 416.8
07/05 23:00 12.4 92 10.05 11.1 59 72 1010.1 5 22.8 28.6 46.5 122.2 119.9 413.7
07/05 22:50 12.6 91 10.07 11.1 65 74 1009.7 5 22.8 28.6 46.4 122.1 119.9 413.5
07/05 22:40 12.3 90 9.77 10.8 57 69 1009.9 5 22.2 28.2 45.3 119.2 116.1 400.4
07/05 22:30 12.6 92 10.18 11.3 57 70 1009.8 5 23.1 28.8 46.9 123.4 121.4 418.9
07/05 22:20 12.8 93 10.42 11.7 54 69 1010 5 23.6 29.1 47.8 125.9 124.6 429.8
07/05 22:10 12.5 92 10.12 11.2 63 69 1009.6 5 22.9 28.7 46.7 122.8 120.7 416.4
07/05 22:00 12.9 93 10.48 11.8 56 69 1010 5 23.7 29.2 48.0 126.4 125.2 432.3
07/05 21:50 12.7 93 10.35 11.6 54 61 1009.8 5 23.4 29.0 47.6 125.2 123.7 426.8
07/05 21:40 12.6 94 10.4 11.6 54 61 1009.8 5 23.5 29.2 47.8 125.9 124.6 429.9
07/05 21:30 12.7 94 10.46 11.8 56 67 1010.1 5 23.6 29.2 48.0 126.5 125.3 432.4
07/05 21:20 12.6 94 10.4 11.6 59 67 1009.8 4.8 23.5 29.2 47.8 125.9 124.6 429.9
07/05 21:10 12.6 94 10.4 11.6 56 65 1010 4.8 23.5 29.2 47.8 125.9 124.6 430.0
07/05 21:00 12.9 94 10.6 12 54 65 1010.1 4.6 23.9 29.4 48.5 127.8 127.0 438.3
07/05 20:50 12.9 94 10.6 11.9 48 57 1010.2 4.6 23.9 29.4 48.5 127.8 127.0 438.3
07/05 20:40 12.6 93 10.29 11.5 48 52 1010.3 4.4 23.3 29.0 47.4 124.7 123.1 424.6
07/05 20:30 12.6 93 10.29 11.5 50 63 1010.1 4.2 23.3 29.0 47.4 124.7 123.0 424.5
07/05 20:20 12.6 93 10.29 11.5 54 59 1010.2 4.2 23.3 29.0 47.4 124.7 123.0 424.5
07/05 20:10 12.5 94 10.34 11.5 50 56 1010.4 4.2 23.4 29.1 47.7 125.5 123.9 427.7
07/05 20:00 12.4 93 10.16 11.3 50 59 1010.4 4.2 23.0 28.8 46.9 123.5 121.5 419.2

Last Refresh: 08-May-2026 12:07:20

Bureau of Meteorology